createdAt,value
2023-05-12T00:02:17.757Z,99179.56
2023-05-12T00:05:21.259Z,99183.09
2023-05-12T00:08:24.922Z,99180.22
2023-05-12T00:11:28.509Z,99182.34
2023-05-12T00:14:32.065Z,99169.91
2023-05-12T00:17:37.048Z,99182.66
2023-05-12T00:20:40.606Z,99180.50
2023-05-12T00:23:44.528Z,99180.22
2023-05-12T00:26:48.040Z,99183.19
2023-05-12T00:29:51.581Z,99182.22
2023-05-12T00:32:56.795Z,99185.69
2023-05-12T00:36:03.676Z,99178.50
2023-05-12T00:39:07.195Z,99186.13
2023-05-12T00:42:12.061Z,99189.63
2023-05-12T00:45:16.076Z,99187.16
2023-05-12T00:48:22.228Z,99186.13
2023-05-12T00:51:27.912Z,99182.94
2023-05-12T00:54:32.951Z,99184.44
2023-05-12T00:57:36.646Z,99184.59
2023-05-12T01:00:40.131Z,99190.16
2023-05-12T01:03:46.556Z,99184.88
2023-05-12T01:06:57.500Z,99185.69
2023-05-12T01:10:01.387Z,99192.72
2023-05-12T01:13:09.023Z,99188.63
2023-05-12T01:16:16.160Z,99187.03
2023-05-12T01:19:34.602Z,99185.06
2023-05-12T01:22:40.662Z,99183.94
2023-05-12T01:25:46.279Z,99192.91
2023-05-12T01:28:52.776Z,99186.19
2023-05-12T01:31:56.944Z,99199.81
2023-05-12T01:35:01.035Z,99204.28
2023-05-12T01:38:06.296Z,99207.06
2023-05-12T01:41:13.220Z,99207.19
2023-05-12T01:44:18.148Z,99214.97
2023-05-12T01:47:22.250Z,99215.56
2023-05-12T01:50:32.952Z,99220.56
2023-05-12T01:53:38.052Z,99220.47
2023-05-12T01:56:42.200Z,99216.91
2023-05-12T01:59:47.325Z,99217.31
2023-05-12T02:02:51.014Z,99208.81
2023-05-12T02:05:54.454Z,99219.13
2023-05-12T02:08:58.361Z,99216.28
2023-05-12T02:12:02.487Z,99212.84
2023-05-12T02:15:08.418Z,99209.56
2023-05-12T02:18:14.117Z,99209.38
2023-05-12T02:21:18.922Z,99212.03
2023-05-12T02:24:22.533Z,99219.41
2023-05-12T02:27:26.215Z,99222.16
2023-05-12T02:30:31.645Z,99219.03
2023-05-12T02:33:35.050Z,99217.72
2023-05-12T02:36:38.591Z,99218.06
2023-05-12T02:39:42.465Z,99217.41
2023-05-12T02:42:46.094Z,99223.66
2023-05-12T02:45:51.953Z,99225.25
2023-05-12T02:48:55.392Z,99221.28
2023-05-12T02:51:58.932Z,99231.88
2023-05-12T02:55:02.332Z,99226.19
2023-05-12T02:58:07.217Z,99222.09
2023-05-12T03:01:12.678Z,99221.44
2023-05-12T03:04:18.003Z,99224.88
2023-05-12T03:07:21.992Z,99224.44
2023-05-12T03:10:26.967Z,99219.31
2023-05-12T03:13:30.396Z,99220.25
2023-05-12T03:16:35.446Z,99222.44
2023-05-12T03:19:39.220Z,99220.84
2023-05-12T03:22:43.219Z,99224.59
2023-05-12T03:25:47.837Z,99222.63
2023-05-12T03:28:51.505Z,99216.84
2023-05-12T03:31:56.409Z,99218.81
2023-05-12T03:35:00.342Z,99223.25
2023-05-12T03:38:04.276Z,99229.09
2023-05-12T03:41:08.263Z,99227.69
2023-05-12T03:44:12.514Z,99220.03
2023-05-12T03:47:17.658Z,99225.59
2023-05-12T03:50:23.006Z,99219.09
2023-05-12T03:53:26.587Z,99224.81
2023-05-12T03:56:30.079Z,99221.16
2023-05-12T03:59:33.741Z,99230.03
2023-05-12T04:02:38.679Z,99226.00
2023-05-12T04:05:44.597Z,99233.09
2023-05-12T04:08:48.301Z,99229.84
2023-05-12T04:11:51.766Z,99238.19
2023-05-12T04:14:55.186Z,99242.31
2023-05-12T04:17:59.989Z,99244.50
2023-05-12T04:21:04.414Z,99241.72
2023-05-12T04:24:08.091Z,99247.59
2023-05-12T04:27:14.169Z,99248.69
2023-05-12T04:30:18.069Z,99246.47
2023-05-12T04:33:23.423Z,99245.63
2023-05-12T04:36:27.370Z,99243.88
2023-05-12T04:39:31.404Z,99247.28
2023-05-12T04:42:35.511Z,99239.00
2023-05-12T04:45:39.444Z,99239.97
2023-05-12T04:48:44.636Z,99247.56
2023-05-12T04:51:48.114Z,99255.91
2023-05-12T04:54:51.729Z,99255.56
2023-05-12T04:57:55.303Z,99257.25
2023-05-12T05:00:59.157Z,99252.00
2023-05-12T05:04:04.604Z,99248.50
2023-05-12T05:07:08.088Z,99251.72
2023-05-12T05:10:12.134Z,99252.41
2023-05-12T05:13:18.952Z,99254.31
2023-05-12T05:16:22.615Z,99258.66
2023-05-12T05:19:40.364Z,99263.34
2023-05-12T05:22:51.296Z,99261.78
2023-05-12T05:25:56.860Z,99259.53
2023-05-12T05:29:00.769Z,99259.97
2023-05-12T05:32:04.631Z,99258.44
2023-05-12T05:35:10.455Z,99258.91
2023-05-12T05:38:19.053Z,99254.09
2023-05-12T05:41:23.084Z,99252.16
2023-05-12T05:44:26.748Z,99254.13
2023-05-12T05:47:32.847Z,99255.53
2023-05-12T05:50:38.159Z,99260.97
2023-05-12T05:53:42.214Z,99263.59
2023-05-12T05:56:47.053Z,99259.13
2023-05-12T05:59:52.487Z,99262.13
2023-05-12T06:02:56.182Z,99260.47
2023-05-12T06:06:01.511Z,99269.56
2023-05-12T06:09:05.622Z,99260.63
2023-05-12T06:12:10.417Z,99271.94
2023-05-12T06:15:18.261Z,99264.19
2023-05-12T06:18:23.974Z,99270.84
2023-05-12T06:21:32.323Z,99271.00
2023-05-12T06:24:35.830Z,99274.63
2023-05-12T06:27:39.311Z,99281.88
2023-05-12T06:30:42.925Z,99279.78
2023-05-12T06:33:46.326Z,99277.19
2023-05-12T06:36:53.150Z,99274.91
2023-05-12T06:39:57.912Z,99273.41
2023-05-12T06:43:02.052Z,99276.88
2023-05-12T06:46:07.151Z,99282.84
2023-05-12T06:49:12.014Z,99277.34
2023-05-12T06:52:16.900Z,99275.06
2023-05-12T06:55:21.176Z,99278.97
2023-05-12T06:58:24.796Z,99281.19
2023-05-12T07:01:28.641Z,99285.94
2023-05-12T07:04:32.241Z,99280.66
2023-05-12T07:07:37.293Z,99286.22
2023-05-12T07:10:43.012Z,99280.25
2023-05-12T07:13:46.525Z,99283.22
2023-05-12T07:16:50.103Z,99280.94
2023-05-12T07:19:53.850Z,99279.78
2023-05-12T07:22:58.654Z,99281.19
2023-05-12T07:26:03.094Z,99281.34
2023-05-12T07:29:07.491Z,99284.63
2023-05-12T07:32:11.190Z,99284.50
2023-05-12T07:35:15.078Z,99281.41
2023-05-12T07:38:20.011Z,99285.22
2023-05-12T07:41:24.652Z,99283.38
2023-05-12T07:44:28.674Z,99283.44
2023-05-12T07:47:32.387Z,99281.72
2023-05-12T07:50:36.277Z,99282.44
2023-05-12T07:53:41.757Z,99288.66
2023-05-12T07:56:45.260Z,99283.28
2023-05-12T07:59:49.422Z,99289.38
2023-05-12T08:02:54.167Z,99294.97
2023-05-12T08:05:58.438Z,99281.66
2023-05-12T08:09:03.322Z,99287.66
2023-05-12T08:12:07.508Z,99285.06
2023-05-12T08:15:11.677Z,99292.69
2023-05-12T08:18:15.173Z,99298.19
2023-05-12T08:21:19.297Z,99293.56
2023-05-12T08:24:24.056Z,99297.53
2023-05-12T08:27:27.437Z,99298.13
2023-05-12T08:30:31.471Z,99296.88
2023-05-12T08:33:36.236Z,99300.13
2023-05-12T08:36:40.121Z,99301.00
2023-05-12T08:39:44.985Z,99297.09
2023-05-12T08:42:58.337Z,99303.16
2023-05-12T08:46:03.399Z,99304.81
2023-05-12T08:49:12.663Z,99304.06
2023-05-12T08:52:22.769Z,99304.56
2023-05-12T08:55:32.644Z,99311.56
2023-05-12T08:58:42.042Z,99307.56
2023-05-12T09:01:49.356Z,99302.63
2023-05-12T09:04:55.038Z,99306.13
2023-05-12T09:07:59.941Z,99304.75
2023-05-12T09:11:05.378Z,99298.97
2023-05-12T09:14:14.153Z,99303.31
2023-05-12T09:17:17.944Z,99299.88
2023-05-12T09:20:30.929Z,99301.78
2023-05-12T09:23:35.865Z,99299.34
2023-05-12T09:26:49.456Z,99300.88
2023-05-12T09:29:59.118Z,99300.16
2023-05-12T09:33:07.791Z,99305.09
2023-05-12T09:36:11.510Z,99297.00
2023-05-12T09:39:15.354Z,99295.72
2023-05-12T09:42:24.053Z,99296.84
2023-05-12T09:45:27.590Z,99305.47
2023-05-12T09:48:31.626Z,99298.06
2023-05-12T09:51:35.476Z,99298.50
2023-05-12T09:54:41.465Z,99297.66
2023-05-12T09:57:47.973Z,99289.44
2023-05-12T10:04:01.160Z,99289.47
2023-05-12T10:07:04.930Z,99280.47
2023-05-12T10:10:12.151Z,99285.88
2023-05-12T10:13:17.454Z,99284.69
2023-05-12T10:16:23.001Z,99282.16
2023-05-12T10:19:27.400Z,99277.63
2023-05-12T10:22:33.526Z,99281.19
2023-05-12T10:25:37.270Z,99277.47
2023-05-12T10:28:43.692Z,99286.69
2023-05-12T10:31:49.092Z,99279.81
2023-05-12T10:34:53.059Z,99281.88
2023-05-12T10:37:56.698Z,99277.31
2023-05-12T10:41:02.842Z,99272.38
2023-05-12T10:44:07.862Z,99274.41
2023-05-12T10:47:15.436Z,99263.72
2023-05-12T10:50:28.487Z,99260.03
2023-05-12T10:53:48.317Z,99265.63
2023-05-12T10:57:00.383Z,99275.06
2023-05-12T11:00:06.017Z,99272.41
2023-05-12T11:03:14.798Z,99258.50
2023-05-12T11:06:21.312Z,99260.06
2023-05-12T11:09:27.141Z,99256.50
2023-05-12T11:12:33.276Z,99268.59
2023-05-12T11:15:39.108Z,99271.19
2023-05-12T11:18:42.494Z,99270.22
2023-05-12T11:21:46.316Z,99268.66
2023-05-12T11:24:51.468Z,99266.13
2023-05-12T11:27:55.775Z,99272.41
2023-05-12T11:31:01.035Z,99270.28
2023-05-12T11:34:12.574Z,99267.53
2023-05-12T11:37:21.117Z,99265.72
2023-05-12T11:40:25.175Z,99255.06
2023-05-12T11:43:30.258Z,99268.66
2023-05-12T11:46:35.176Z,99265.81
2023-05-12T11:49:48.443Z,99273.94
2023-05-12T11:52:52.839Z,99275.22
2023-05-12T11:56:00.596Z,99280.06
2023-05-12T11:59:04.403Z,99285.34
2023-05-12T12:02:09.309Z,99282.03
2023-05-12T12:05:19.163Z,99282.53
2023-05-12T12:08:22.773Z,99280.97
2023-05-12T12:11:28.503Z,99286.00
2023-05-12T12:14:33.409Z,99273.28
2023-05-12T12:17:38.328Z,99289.88
2023-05-12T12:20:42.187Z,99283.19
2023-05-12T12:23:51.375Z,99275.91
2023-05-12T12:26:55.497Z,99271.34
2023-05-12T12:29:59.077Z,99279.13
2023-05-12T12:33:04.288Z,99271.34
2023-05-12T12:36:10.699Z,99275.75
2023-05-12T12:39:14.802Z,99282.13
2023-05-12T12:42:18.492Z,99283.56
2023-05-12T12:45:22.744Z,99279.75
2023-05-12T12:48:28.643Z,99286.06
2023-05-12T12:51:45.173Z,99278.28
2023-05-12T12:54:49.968Z,99282.50
2023-05-12T12:57:54.014Z,99284.63
2023-05-12T13:00:57.406Z,99290.94
2023-05-12T13:04:02.461Z,99281.47
2023-05-12T13:07:06.839Z,99286.00
2023-05-12T13:10:10.814Z,99275.06
2023-05-12T13:13:14.565Z,99278.94
2023-05-12T13:16:18.551Z,99273.28
2023-05-12T13:19:23.618Z,99277.66
2023-05-12T13:22:27.641Z,99274.66
2023-05-12T13:25:32.329Z,99269.16
2023-05-12T13:28:35.983Z,99263.81
2023-05-12T13:31:41.672Z,99275.44
2023-05-12T13:34:47.269Z,99259.53
2023-05-12T13:40:54.781Z,99267.00
2023-05-12T13:43:58.166Z,99267.94
2023-05-12T13:47:02.501Z,99255.72
2023-05-12T13:50:09.081Z,99277.22
2023-05-12T13:53:13.310Z,99276.09
2023-05-12T13:56:17.869Z,99286.84
2023-05-12T13:59:23.045Z,99283.97
2023-05-12T14:02:27.167Z,99281.16
2023-05-12T14:05:32.506Z,99285.41
2023-05-12T14:08:36.489Z,99276.22
2023-05-12T14:11:39.999Z,99270.97
2023-05-12T14:14:49.757Z,99269.19
2023-05-12T14:17:53.484Z,99255.13
2023-05-12T14:20:59.268Z,99269.16
2023-05-12T14:24:02.891Z,99275.06
2023-05-12T14:27:07.256Z,99272.88
2023-05-12T14:30:12.224Z,99273.34
2023-05-12T14:33:15.939Z,99268.31
2023-05-12T14:36:21.282Z,99274.09
2023-05-12T14:39:25.935Z,99271.50
2023-05-12T14:42:35.892Z,99271.03
2023-05-12T14:45:39.428Z,99264.25
2023-05-12T14:48:43.106Z,99271.34
2023-05-12T14:51:48.593Z,99268.25
2023-05-12T14:54:52.530Z,99275.16
2023-05-12T14:57:56.121Z,99269.16
2023-05-12T15:01:02.120Z,99273.47
2023-05-12T15:04:06.233Z,99275.03
2023-05-12T15:07:11.340Z,99275.41
2023-05-12T15:10:15.217Z,99277.66
2023-05-12T15:13:20.480Z,99288.56
2023-05-12T15:16:26.291Z,99282.03
2023-05-12T15:19:29.948Z,99291.72
2023-05-12T15:22:35.283Z,99285.34
2023-05-12T15:25:40.997Z,99276.22
2023-05-12T15:28:44.692Z,99276.88
2023-05-12T15:31:49.032Z,99280.72
2023-05-12T15:34:52.784Z,99276.59
2023-05-12T15:37:57.683Z,99279.06
2023-05-12T15:41:01.102Z,99280.59
2023-05-12T15:44:04.598Z,99280.38
2023-05-12T15:47:08.975Z,99288.84
2023-05-12T15:50:13.099Z,99278.25
2023-05-12T15:53:18.001Z,99288.25
2023-05-12T15:56:21.545Z,99286.03
2023-05-12T15:59:25.051Z,99283.47
2023-05-12T16:02:28.752Z,99285.56
2023-05-12T16:05:34.183Z,99278.31
2023-05-12T16:08:39.016Z,99282.88
2023-05-12T16:11:43.069Z,99279.44
2023-05-12T16:14:46.548Z,99282.38
2023-05-12T16:17:50.027Z,99279.03
2023-05-12T16:20:53.866Z,99275.44
2023-05-12T16:23:59.041Z,99288.41
2023-05-12T16:27:02.958Z,99275.56
2023-05-12T16:30:07.922Z,99290.50
2023-05-12T16:33:12.050Z,99294.03
2023-05-12T16:36:17.135Z,99292.59
2023-05-12T16:39:22.893Z,99298.50
2023-05-12T16:42:26.861Z,99302.44
2023-05-12T16:45:30.530Z,99306.31
2023-05-12T16:48:37.185Z,99312.63
2023-05-12T16:51:40.814Z,99304.94
2023-05-12T16:54:47.437Z,99319.41
2023-05-12T16:57:51.288Z,99319.94
2023-05-12T17:00:55.567Z,99321.88
2023-05-12T17:03:59.475Z,99313.81
2023-05-12T17:07:03.301Z,99323.34
2023-05-12T17:10:11.848Z,99325.31
2023-05-12T17:13:16.881Z,99324.63
2023-05-12T17:16:23.837Z,99333.28
2023-05-12T17:19:27.354Z,99328.06
2023-05-12T17:22:32.386Z,99325.38
2023-05-12T17:25:37.781Z,99338.41
2023-05-12T17:28:41.429Z,99327.09
2023-05-12T17:31:44.994Z,99329.50
2023-05-12T17:34:51.529Z,99341.53
2023-05-12T17:37:55.818Z,99341.81
2023-05-12T17:41:00.872Z,99349.44
2023-05-12T17:44:04.273Z,99356.25
2023-05-12T17:47:08.095Z,99361.31
2023-05-12T17:50:14.098Z,99361.88
2023-05-12T17:53:17.733Z,99361.13
2023-05-12T17:56:22.714Z,99375.34
2023-05-12T17:59:26.320Z,99369.56
2023-05-12T18:02:29.998Z,99372.50
2023-05-12T18:05:34.893Z,99371.50
2023-05-12T18:08:39.837Z,99370.88
2023-05-12T18:11:44.837Z,99369.88
2023-05-12T18:14:48.277Z,99371.69
2023-05-12T18:17:53.029Z,99378.88
2023-05-12T18:20:56.654Z,99375.56
2023-05-12T18:24:00.262Z,99384.47
2023-05-12T18:27:06.588Z,99385.97
2023-05-12T18:30:11.294Z,99388.47
2023-05-12T18:33:15.061Z,99383.16
2023-05-12T18:36:18.826Z,99389.59
2023-05-12T18:39:22.313Z,99389.47
2023-05-12T18:42:27.463Z,99398.25
2023-05-12T18:45:30.973Z,99403.53
2023-05-12T18:48:34.406Z,99402.59
2023-05-12T18:51:38.570Z,99400.69
2023-05-12T18:54:42.127Z,99406.28
2023-05-12T18:57:47.007Z,99406.81
2023-05-12T19:00:50.933Z,99408.88
2023-05-12T19:03:54.408Z,99416.94
2023-05-12T19:06:58.135Z,99414.53
2023-05-12T19:10:01.798Z,99414.97
2023-05-12T19:13:06.911Z,99422.41
2023-05-12T19:16:10.460Z,99414.47
2023-05-12T19:19:14.439Z,99420.34
2023-05-12T19:22:18.106Z,99423.97
2023-05-12T19:25:22.331Z,99424.47
2023-05-12T19:28:27.580Z,99429.69
2023-05-12T19:31:31.652Z,99437.94
2023-05-12T19:34:35.367Z,99436.84
2023-05-12T19:37:39.205Z,99440.34
2023-05-12T19:40:42.954Z,99441.00
2023-05-12T19:43:47.832Z,99444.59
2023-05-12T19:46:51.820Z,99439.56
2023-05-12T19:49:55.827Z,99439.06
2023-05-12T19:52:59.913Z,99445.88
2023-05-12T19:56:03.864Z,99451.94
2023-05-12T19:59:08.729Z,99446.97
2023-05-12T20:02:15.570Z,99449.06
2023-05-12T20:05:19.540Z,99447.50
2023-05-12T20:08:23.829Z,99446.84
2023-05-12T20:11:27.262Z,99451.66
2023-05-12T20:14:32.992Z,99451.66
2023-05-12T20:17:36.796Z,99443.19
2023-05-12T20:20:40.234Z,99452.16
2023-05-12T20:23:44.670Z,99444.47
2023-05-12T20:26:49.276Z,99444.88
2023-05-12T20:29:54.769Z,99441.50
2023-05-12T20:32:58.638Z,99440.84
2023-05-12T20:36:02.100Z,99432.53
2023-05-12T20:39:06.284Z,99438.53
2023-05-12T20:42:10.924Z,99433.19
2023-05-12T20:45:16.645Z,99434.03
2023-05-12T20:48:20.160Z,99446.84
2023-05-12T20:51:23.716Z,99441.19
2023-05-12T20:54:27.284Z,99441.41
2023-05-12T20:57:30.754Z,99444.31
2023-05-12T21:00:35.976Z,99435.88
2023-05-12T21:03:39.835Z,99447.72
2023-05-12T21:06:43.182Z,99450.91
2023-05-12T21:09:47.056Z,99444.09
2023-05-12T21:12:50.629Z,99442.00
2023-05-12T21:15:55.556Z,99448.66
2023-05-12T21:18:59.086Z,99450.34
2023-05-12T21:22:03.004Z,99442.97
2023-05-12T21:25:07.940Z,99443.16
2023-05-12T21:28:11.656Z,99454.13
2023-05-12T21:31:16.771Z,99447.84
2023-05-12T21:34:20.486Z,99443.75
2023-05-12T21:37:24.038Z,99447.84
2023-05-12T21:40:27.427Z,99452.59
2023-05-12T21:43:30.926Z,99453.44
2023-05-12T21:46:37.051Z,99451.97
2023-05-12T21:49:40.534Z,99452.47
2023-05-12T21:52:45.157Z,99449.66
2023-05-12T21:55:48.694Z,99448.72
2023-05-12T21:58:52.176Z,99447.97
2023-05-12T22:01:57.493Z,99447.19
2023-05-12T22:05:01.046Z,99450.69
2023-05-12T22:08:06.464Z,99444.38
2023-05-12T22:11:10.209Z,99447.16
2023-05-12T22:14:14.209Z,99449.91
2023-05-12T22:17:19.149Z,99450.56
2023-05-12T22:20:23.411Z,99448.66
2023-05-12T22:23:27.012Z,99454.56
2023-05-12T22:26:30.498Z,99457.53
2023-05-12T22:29:34.310Z,99459.59
2023-05-12T22:32:39.394Z,99444.09
2023-05-12T22:35:42.935Z,99449.25
2023-05-12T22:38:46.379Z,99453.59
2023-05-12T22:41:49.901Z,99449.63
2023-05-12T22:44:57.894Z,99451.94
2023-05-12T22:48:07.923Z,99455.44
2023-05-12T22:51:12.001Z,99447.88
2023-05-12T22:54:16.323Z,99437.75
2023-05-12T22:57:20.509Z,99446.56
2023-05-12T23:00:24.710Z,99436.00
2023-05-12T23:03:29.745Z,99441.13
2023-05-12T23:06:33.822Z,99450.69
2023-05-12T23:09:38.137Z,99449.34
2023-05-12T23:12:42.020Z,99450.63
2023-05-12T23:15:45.834Z,99441.09
2023-05-12T23:18:51.075Z,99438.94
2023-05-12T23:21:54.714Z,99446.44
2023-05-12T23:24:58.647Z,99450.03
2023-05-12T23:28:04.958Z,99449.94
2023-05-12T23:31:08.561Z,99449.47
2023-05-12T23:34:13.423Z,99451.16
2023-05-12T23:37:16.885Z,99462.63
2023-05-12T23:40:21.461Z,99453.22
2023-05-12T23:43:25.160Z,99462.16
2023-05-12T23:46:28.834Z,99457.84
2023-05-12T23:49:33.852Z,99451.41
2023-05-12T23:52:37.338Z,99454.31
2023-05-12T23:55:40.915Z,99457.44
2023-05-12T23:58:53.890Z,99455.81
